Time;durP1;ratioP1;P1;durP2;ratioP2;P2;SDS_P1;SDS_P2;PMS_P1;PMS_P2;Temp;Humidity;BMP_temperature;BMP_pressure;BME280_temperature;BME280_humidity;BME280_pressure;Samples;Min_cycle;Max_cycle;Signal;HPM_P1;HPM_P2
2022/04/24 00:00:08;;;;;;;;;;;;;;;18.03;33.50;99033.81;4982963;28;6780;-74
2022/04/24 00:02:33;;;;;;;;;;;;;;;18.00;33.83;99029.47;4984536;28;7178;-74
2022/04/24 00:05:00;;;;;;;;;;;;;;;17.95;33.98;99032.97;4982118;28;6808;-74
2022/04/24 00:07:26;;;;;;;;;;;;;;;17.92;33.69;99026.09;4985080;28;6987;-74
2022/04/24 00:09:52;;;;;;;;;;;;;;;17.88;33.75;99025.25;4983091;28;6995;-74
2022/04/24 00:12:18;;;;;;;;;;;;;;;17.83;33.99;99018.34;5000705;28;6815;-74
2022/04/24 00:14:48;;;;;;;;;;;;;;;17.77;33.81;99014.06;4982762;28;6982;-74
2022/04/24 00:17:16;;;;;;;;;;;;;;;17.70;34.60;99013.19;4964173;28;7201;-74
2022/04/24 00:19:43;;;;;;;;;;;;;;;17.66;34.15;99013.19;4959788;28;6828;-74
2022/04/24 00:22:09;;;;;;;;;;;;;;;17.57;33.91;99025.31;4981575;28;6875;-74
2022/04/24 00:24:35;;;;;;;;;;;;;;;17.48;34.00;99015.00;4982863;28;7413;-74
2022/04/24 00:27:01;;;;;;;;;;;;;;;17.40;34.39;99021.94;4981038;28;6800;-74
2022/04/24 00:29:27;;;;;;;;;;;;;;;17.30;34.59;99021.06;4967109;28;7141;-74
2022/04/24 00:31:52;;;;;;;;;;;;;;;17.20;34.61;99020.22;4978225;28;7849;-74
2022/04/24 00:34:18;;;;;;;;;;;;;;;17.07;35.21;99020.22;4989718;28;7085;-74
2022/04/24 00:36:45;;;;;;;;;;;;;;;16.97;35.12;99022.81;4985761;28;7983;-73
2022/04/24 00:39:12;;;;;;;;;;;;;;;16.87;35.04;99016.75;4988165;28;6816;-74
2022/04/24 00:41:49;;;;;;;;;;;;;;;16.74;35.17;99019.34;4969943;28;6792;-74
2022/04/24 00:44:17;;;;;;;;;;;;;;;16.64;35.49;99020.19;4987957;28;6833;-74
2022/04/24 00:46:56;;;;;;;;;;;;;;;16.51;35.55;99020.19;4987593;28;7018;-74
2022/04/24 00:49:23;;;;;;;;;;;;;;;16.40;35.41;99019.28;5002979;28;7421;-74
2022/04/24 00:51:49;;;;;;;;;;;;;;;16.31;35.83;99020.13;4990266;28;7021;-74
2022/04/24 00:54:15;;;;;;;;;;;;;;;16.22;35.96;99020.09;4987717;28;7250;-74
2022/04/24 00:56:42;;;;;;;;;;;;;;;16.13;35.95;99018.38;5007321;28;7410;-73
2022/04/24 00:59:11;;;;;;;;;;;;;;;16.05;35.69;99017.47;4971521;28;6812;-73
2022/04/24 01:01:37;;;;;;;;;;;;;;;15.95;36.42;99014.88;4983842;28;6796;-73
2022/04/24 01:04:05;;;;;;;;;;;;;;;15.89;36.04;99014.78;4969195;28;6808;-73
2022/04/24 01:06:37;;;;;;;;;;;;;;;15.81;36.16;99006.16;4972428;28;6987;-73
2022/04/24 01:09:09;;;;;;;;;;;;;;;15.74;36.61;99009.56;4971917;28;7253;-73
2022/04/24 01:11:35;;;;;;;;;;;;;;;15.66;37.21;99012.97;4985798;28;6812;-73
2022/04/24 01:14:01;;;;;;;;;;;;;;;15.60;37.14;99007.78;4989865;28;6784;-73
2022/04/24 01:16:26;;;;;;;;;;;;;;;15.53;36.71;99008.59;5001995;28;6808;-73
2022/04/24 01:18:54;;;;;;;;;;;;;;;15.46;37.32;99007.69;4987659;28;7113;-73
2022/04/24 01:21:19;;;;;;;;;;;;;;;15.39;37.65;98998.19;4968840;28;6989;-73
2022/04/24 01:23:45;;;;;;;;;;;;;;;15.33;37.66;99001.59;4989370;28;7217;-73
2022/04/24 01:26:12;;;;;;;;;;;;;;;15.30;37.24;99013.63;5006065;28;6886;-73
2022/04/24 01:28:38;;;;;;;;;;;;;;;15.23;37.40;99008.44;4989526;28;6823;-73
2022/04/24 01:31:05;;;;;;;;;;;;;;;15.18;38.09;99014.41;5004179;28;6875;-73
2022/04/24 01:33:31;;;;;;;;;;;;;;;15.12;37.64;99007.50;5003920;28;6803;-73
2022/04/24 01:35:57;;;;;;;;;;;;;;;15.06;37.88;99018.59;4998552;28;6791;-73
2022/04/24 01:38:23;;;;;;;;;;;;;;;14.98;38.22;99007.41;4989247;28;7274;-73
2022/04/24 01:40:49;;;;;;;;;;;;;;;14.91;38.08;99011.63;4989357;28;6960;-73
2022/04/24 01:43:16;;;;;;;;;;;;;;;14.85;37.83;99016.75;5004274;28;6866;-73
2022/04/24 01:45:43;;;;;;;;;;;;;;;14.78;38.26;99017.53;5001204;28;6867;-73
2022/04/24 01:48:09;;;;;;;;;;;;;;;14.71;38.27;99020.03;4972342;28;6819;-73
2022/04/24 01:50:35;;;;;;;;;;;;;;;14.65;39.43;99016.53;4983550;28;7138;-73
2022/04/24 01:53:00;;;;;;;;;;;;;;;14.60;39.26;99020.78;4999853;28;6803;-73
2022/04/24 01:55:26;;;;;;;;;;;;;;;14.56;38.80;99019.91;5003310;28;6796;-73
2022/04/24 01:57:52;;;;;;;;;;;;;;;14.50;38.90;99020.69;4986963;28;6816;-73
2022/04/24 02:00:18;;;;;;;;;;;;;;;14.46;39.43;99024.09;4985756;28;7129;-73
2022/04/24 02:02:44;;;;;;;;;;;;;;;14.41;39.88;99015.44;4986838;28;6788;-73
2022/04/24 02:05:09;;;;;;;;;;;;;;;14.36;39.27;99017.09;4986158;28;6811;-73
2022/04/24 02:07:35;;;;;;;;;;;;;;;14.30;39.77;99020.47;4989843;28;6859;-73
2022/04/24 02:10:01;;;;;;;;;;;;;;;14.22;40.19;99019.53;4982233;28;7221;-73
2022/04/24 02:12:27;;;;;;;;;;;;;;;14.12;39.77;99018.59;4987475;28;7309;-73
2022/04/24 02:14:52;;;;;;;;;;;;;;;14.05;39.36;99014.19;4983401;28;6784;-73
2022/04/24 02:17:18;;;;;;;;;;;;;;;13.97;40.70;99006.38;4985029;28;6795;-73
2022/04/24 02:19:44;;;;;;;;;;;;;;;13.88;40.63;99009.69;4981424;28;6886;-73
2022/04/24 02:22:10;;;;;;;;;;;;;;;13.81;40.00;99007.88;4963634;28;6978;-73
2022/04/24 02:24:35;;;;;;;;;;;;;;;13.73;40.14;99011.25;4981578;28;6811;-73
2022/04/24 02:27:01;;;;;;;;;;;;;;;13.67;41.23;99008.59;4985483;28;6987;-73
2022/04/24 02:29:27;;;;;;;;;;;;;;;13.61;40.42;99006.81;4985053;28;6787;-73
2022/04/24 02:31:53;;;;;;;;;;;;;;;13.57;41.37;99011.88;4984058;28;6804;-73
2022/04/24 02:34:18;;;;;;;;;;;;;;;13.56;41.53;99007.59;5000105;28;7029;-73
2022/04/24 02:36:44;;;;;;;;;;;;;;;13.55;41.69;99014.44;4986870;28;6807;-73
2022/04/24 02:39:10;;;;;;;;;;;;;;;13.56;40.82;99005.00;4969461;28;7293;-73
2022/04/24 02:41:35;;;;;;;;;;;;;;;13.56;41.08;99013.59;4969182;28;6997;-73
2022/04/24 02:44:01;;;;;;;;;;;;;;;13.57;41.58;99017.03;4983143;28;6818;-73
2022/04/24 02:46:27;;;;;;;;;;;;;;;13.56;41.26;99017.88;4983109;28;6804;-73
2022/04/24 02:48:53;;;;;;;;;;;;;;;13.57;42.04;99022.19;4985882;28;6795;-73
2022/04/24 02:51:19;;;;;;;;;;;;;;;13.57;42.26;99011.88;4985468;28;7647;-73
2022/04/24 02:53:44;;;;;;;;;;;;;;;13.60;42.15;99017.94;4960975;28;7000;-73
2022/04/24 02:56:10;;;;;;;;;;;;;;;13.64;41.75;99012.81;5001647;28;6788;-73
2022/04/24 02:58:38;;;;;;;;;;;;;;;13.68;41.64;99012.03;4986684;28;6815;-73
2022/04/24 03:01:04;;;;;;;;;;;;;;;13.69;41.88;99016.34;4966706;28;7031;-73
2022/04/24 03:03:30;;;;;;;;;;;;;;;13.71;42.11;99012.94;4982827;28;6804;-73
2022/04/24 03:05:55;;;;;;;;;;;;;;;13.72;41.78;99014.69;4986998;28;6799;-73
2022/04/24 03:08:22;;;;;;;;;;;;;;;13.73;41.68;99016.41;4984952;28;6792;-73
2022/04/24 03:10:48;;;;;;;;;;;;;;;13.74;41.78;99015.56;4985159;28;6975;-73
2022/04/24 03:13:14;;;;;;;;;;;;;;;13.74;41.50;99018.13;4999205;28;7969;-73
2022/04/24 03:15:40;;;;;;;;;;;;;;;13.71;41.80;99012.94;5000334;28;6823;-73
2022/04/24 03:18:07;;;;;;;;;;;;;;;13.69;41.69;99008.63;4982162;28;6938;-73
2022/04/24 03:20:33;;;;;;;;;;;;;;;13.66;41.75;99004.28;4970174;28;6800;-73
2022/04/24 03:22:58;;;;;;;;;;;;;;;13.61;41.73;99009.38;4984069;28;7118;-73
2022/04/24 03:25:24;;;;;;;;;;;;;;;13.57;41.83;99015.34;4983704;28;6807;-73
2022/04/24 03:27:50;;;;;;;;;;;;;;;13.54;42.11;99010.13;4984569;28;6803;-73
2022/04/24 03:30:15;;;;;;;;;;;;;;;13.51;42.79;99014.38;4982672;28;7808;-73
2022/04/24 03:32:41;;;;;;;;;;;;;;;13.49;42.16;99016.06;4985212;28;6791;-74
2022/04/24 03:35:10;;;;;;;;;;;;;;;13.45;42.20;99026.31;4979685;28;6936;-74
2022/04/24 03:37:38;;;;;;;;;;;;;;;13.41;42.47;99018.50;4975310;28;7227;-74
2022/04/24 03:40:05;;;;;;;;;;;;;;;13.37;42.63;99015.03;4982628;28;6820;-74
2022/04/24 03:42:32;;;;;;;;;;;;;;;13.34;43.08;99018.41;5000158;28;7223;-74
2022/04/24 03:44:59;;;;;;;;;;;;;;;13.31;43.01;99009.78;4984911;28;6807;-74
2022/04/24 03:47:25;;;;;;;;;;;;;;;13.28;43.14;99012.31;4982664;28;7856;-74
2022/04/24 03:49:51;;;;;;;;;;;;;;;13.25;43.15;99007.13;4985007;28;7056;-74
2022/04/24 03:52:17;;;;;;;;;;;;;;;13.23;43.53;99019.06;4984162;28;6807;-74
2022/04/24 03:54:44;;;;;;;;;;;;;;;13.19;43.36;99011.31;4967956;28;6879;-73
2022/04/24 03:57:10;;;;;;;;;;;;;;;13.18;43.00;99021.59;4984969;28;6803;-73
2022/04/24 03:59:35;;;;;;;;;;;;;;;13.14;43.72;99014.66;4981322;28;6796;-73
2022/04/24 04:02:02;;;;;;;;;;;;;;;13.12;43.50;99017.22;4968515;28;6930;-73
2022/04/24 04:04:29;;;;;;;;;;;;;;;13.10;42.86;99024.03;4984657;28;8179;-73
2022/04/24 04:06:55;;;;;;;;;;;;;;;13.08;42.98;99014.56;4984458;28;6808;-73
2022/04/24 04:09:20;;;;;;;;;;;;;;;13.06;43.58;99022.28;4983537;28;6906;-73
2022/04/24 04:11:46;;;;;;;;;;;;;;;13.03;43.17;99019.63;4982223;28;7557;-73
2022/04/24 04:14:12;;;;;;;;;;;;;;;13.01;43.16;99029.03;4981763;28;6879;-73
2022/04/24 04:16:37;;;;;;;;;;;;;;;12.98;44.02;99034.16;4961048;28;6984;-73
2022/04/24 04:19:03;;;;;;;;;;;;;;;12.96;43.40;99028.97;4979758;28;7323;-75
2022/04/24 04:21:29;;;;;;;;;;;;;;;12.94;43.52;99032.34;4994750;28;7062;-75
2022/04/24 04:23:54;;;;;;;;;;;;;;;12.94;44.22;99034.91;4980835;28;6828;-75
2022/04/24 04:26:20;;;;;;;;;;;;;;;12.92;43.82;99030.63;4982679;28;6883;-75
2022/04/24 04:28:46;;;;;;;;;;;;;;;12.90;43.38;99037.44;4979957;28;6796;-75
2022/04/24 04:31:14;;;;;;;;;;;;;;;12.90;43.64;99032.31;4980448;28;6971;-75
2022/04/24 04:33:40;;;;;;;;;;;;;;;12.89;44.16;99033.16;4966335;28;6820;-75
2022/04/24 04:36:06;;;;;;;;;;;;;;;12.89;44.08;99042.56;4982630;28;6816;-75
2022/04/24 04:38:32;;;;;;;;;;;;;;;12.90;43.86;99040.03;4999912;28;6988;-75
2022/04/24 04:40:58;;;;;;;;;;;;;;;12.90;44.26;99042.59;4980345;28;6974;-75
2022/04/24 04:43:27;;;;;;;;;;;;;;;12.93;44.07;99046.94;4978540;28;6838;-75
2022/04/24 04:45:53;;;;;;;;;;;;;;;12.92;43.74;99046.06;4981536;28;6902;-75
2022/04/24 04:48:19;;;;;;;;;;;;;;;12.95;44.40;99049.53;4981635;28;7200;-75
2022/04/24 04:50:44;;;;;;;;;;;;;;;12.95;44.25;99052.09;4981793;28;7884;-75
2022/04/24 04:53:10;;;;;;;;;;;;;;;12.92;43.99;99058.91;4984918;28;6862;-75
2022/04/24 04:55:36;;;;;;;;;;;;;;;12.92;44.16;99064.06;4981367;28;6788;-75
2022/04/24 04:58:03;;;;;;;;;;;;;;;12.94;44.36;99063.22;4982194;28;6870;-75
2022/04/24 05:00:29;;;;;;;;;;;;;;;12.92;44.51;99069.19;4981526;28;7347;-75
2022/04/24 05:02:55;;;;;;;;;;;;;;;12.94;44.28;99073.50;4982051;28;7070;-75
2022/04/24 05:05:21;;;;;;;;;;;;;;;12.95;44.54;99076.09;4983013;28;6795;-75
2022/04/24 05:07:47;;;;;;;;;;;;;;;12.97;43.92;99077.00;4981195;28;6792;-75
2022/04/24 05:10:13;;;;;;;;;;;;;;;13.00;44.24;99074.50;4979785;28;7318;-75
2022/04/24 05:12:39;;;;;;;;;;;;;;;13.01;44.78;99070.19;4981913;28;6859;-75
2022/04/24 05:15:08;;;;;;;;;;;;;;;13.03;44.91;99078.78;4979927;28;7271;-75
2022/04/24 05:17:35;;;;;;;;;;;;;;;13.05;44.60;99083.13;4962873;28;6807;-75
2022/04/24 05:20:02;;;;;;;;;;;;;;;13.08;43.95;99087.47;4981972;28;7226;-75
2022/04/24 05:22:28;;;;;;;;;;;;;;;13.11;44.83;99086.66;4983626;28;6808;-75
2022/04/24 05:24:54;;;;;;;;;;;;;;;13.14;44.41;99090.16;4986713;28;6783;-75
2022/04/24 05:27:19;;;;;;;;;;;;;;;13.19;44.19;99095.38;4982356;28;6772;-75
2022/04/24 05:29:46;;;;;;;;;;;;;;;13.25;44.72;99092.03;4988735;28;6792;-75
2022/04/24 05:32:12;;;;;;;;;;;;;;;13.33;44.20;99095.59;4988450;28;6895;-75
2022/04/24 05:34:39;;;;;;;;;;;;;;;13.44;44.43;99098.31;4976146;28;6788;-75
2022/04/24 05:37:05;;;;;;;;;;;;;;;13.56;44.99;99097.69;4987769;28;7134;-75
2022/04/24 05:39:31;;;;;;;;;;;;;;;13.67;44.38;99097.84;4980785;28;6792;-75
2022/04/24 05:41:57;;;;;;;;;;;;;;;13.80;43.78;99098.88;4996905;28;6819;-75
2022/04/24 05:44:22;;;;;;;;;;;;;;;13.90;44.02;99105.88;5003100;28;6783;-75
2022/04/24 05:46:48;;;;;;;;;;;;;;;14.00;43.48;99106.88;4984570;28;7061;-75
2022/04/24 05:49:13;;;;;;;;;;;;;;;14.12;44.41;99108.75;4995615;28;6902;-75
2022/04/24 05:51:39;;;;;;;;;;;;;;;14.19;43.57;99115.69;4986335;28;9860;-75
2022/04/24 05:54:05;;;;;;;;;;;;;;;14.25;44.00;99110.63;4966790;28;7104;-73
2022/04/24 05:56:30;;;;;;;;;;;;;;;14.34;43.35;99116.75;4975611;28;8067;-73
2022/04/24 05:58:56;;;;;;;;;;;;;;;14.39;42.92;99115.06;4986324;28;7180;-73
2022/04/24 06:01:22;;;;;;;;;;;;;;;14.43;43.75;99116.84;4985135;28;6823;-73
2022/04/24 06:03:48;;;;;;;;;;;;;;;14.46;43.63;99119.47;4985123;28;6867;-73
2022/04/24 06:06:14;;;;;;;;;;;;;;;14.50;42.91;99121.25;4983487;28;7204;-73
2022/04/24 06:08:40;;;;;;;;;;;;;;;14.54;42.96;99124.72;4970206;28;6799;-73
2022/04/24 06:11:05;;;;;;;;;;;;;;;14.58;43.06;99118.75;4986935;28;6791;-73
2022/04/24 06:13:31;;;;;;;;;;;;;;;14.62;43.34;99114.50;4986605;28;6791;-73
2022/04/24 06:15:57;;;;;;;;;;;;;;;14.67;43.38;99120.53;4984503;28;7254;-73
2022/04/24 06:18:25;;;;;;;;;;;;;;;14.72;43.12;99118.88;4986360;28;6811;-73
2022/04/24 06:20:51;;;;;;;;;;;;;;;14.78;43.17;99119.00;4987036;28;7019;-73
2022/04/24 06:23:17;;;;;;;;;;;;;;;14.83;43.00;99116.47;5001397;28;6967;-73
2022/04/24 06:25:43;;;;;;;;;;;;;;;14.90;42.42;99117.38;4987278;28;6879;-73
2022/04/24 06:28:09;;;;;;;;;;;;;;;14.93;41.90;99109.66;4986026;28;6784;-73
2022/04/24 06:30:40;;;;;;;;;;;;;;;14.91;42.51;99116.53;4967203;28;7469;-73
2022/04/24 06:33:10;;;;;;;;;;;;;;;14.87;42.87;99115.63;4968544;28;7369;-73
2022/04/24 06:35:37;;;;;;;;;;;;;;;14.83;42.78;99116.47;4981075;28;6883;-73
2022/04/24 06:38:04;;;;;;;;;;;;;;;14.82;42.46;99113.00;4980395;28;6815;-73
2022/04/24 06:40:31;;;;;;;;;;;;;;;14.86;43.01;99119.91;4983635;28;7025;-72
2022/04/24 06:43:04;;;;;;;;;;;;;;;14.93;43.43;99122.56;4966919;28;6990;-72
2022/04/24 06:45:35;;;;;;;;;;;;;;;15.00;43.08;99119.19;4986472;28;7820;-73
2022/04/24 06:48:12;;;;;;;;;;;;;;;15.05;42.58;99117.50;4968097;28;6972;-73
2022/04/24 06:50:41;;;;;;;;;;;;;;;15.13;42.53;99128.78;4985547;28;6803;-73
2022/04/24 06:53:12;;;;;;;;;;;;;;;15.21;43.25;99118.53;4959354;28;6998;-73
2022/04/24 06:55:41;;;;;;;;;;;;;;;15.27;42.75;99128.91;4981255;28;6799;-73
2022/04/24 06:58:09;;;;;;;;;;;;;;;15.34;42.16;99126.38;4965754;28;7027;-73
2022/04/24 07:00:38;;;;;;;;;;;;;;;15.38;42.17;99133.28;4960784;28;6804;-73
2022/04/24 07:03:17;;;;;;;;;;;;;;;15.40;41.90;99135.03;4980958;28;6820;-73
2022/04/24 07:05:43;;;;;;;;;;;;;;;15.40;41.72;99136.72;4978451;28;6882;-73
2022/04/24 07:08:09;;;;;;;;;;;;;;;15.37;42.56;99129.84;4985150;28;6784;-73
2022/04/24 07:10:35;;;;;;;;;;;;;;;15.38;41.42;99130.69;4983058;28;6808;-73
2022/04/24 07:13:03;;;;;;;;;;;;;;;15.40;41.71;99136.72;4983525;28;7141;-73
2022/04/24 07:15:32;;;;;;;;;;;;;;;15.42;42.24;99137.63;4983002;28;6935;-72
2022/04/24 07:17:58;;;;;;;;;;;;;;;15.48;41.95;99139.41;4985165;28;6807;-72
2022/04/24 07:20:24;;;;;;;;;;;;;;;15.58;42.34;99143.78;4967468;28;6868;-72
2022/04/24 07:22:51;;;;;;;;;;;;;;;15.68;42.28;99144.69;4981981;28;7318;-72
2022/04/24 07:25:23;;;;;;;;;;;;;;;15.81;42.12;99136.19;5000813;28;6879;-72
2022/04/24 07:27:50;;;;;;;;;;;;;;;15.98;42.31;99139.75;4983155;28;7031;-72
2022/04/24 07:30:18;;;;;;;;;;;;;;;16.11;41.44;99136.38;4980184;28;6808;-72
2022/04/24 07:32:50;;;;;;;;;;;;;;;16.22;41.39;99139.91;4966141;28;7256;-72
2022/04/24 07:35:20;;;;;;;;;;;;;;;16.29;41.11;99133.03;4982822;28;6976;-72
2022/04/24 07:37:46;;;;;;;;;;;;;;;16.37;41.21;99130.47;4993967;28;6875;-72
2022/04/24 07:40:15;;;;;;;;;;;;;;;16.44;41.19;99131.34;4999890;28;6799;-72
2022/04/24 07:42:52;;;;;;;;;;;;;;;16.50;41.04;99132.22;4979229;28;7143;-72
2022/04/24 07:45:35;;;;;;;;;;;;;;;16.61;40.78;99141.75;4982262;28;6816;-72
2022/04/24 07:48:03;;;;;;;;;;;;;;;16.72;41.12;99144.38;4981938;28;7034;-72
2022/04/24 07:50:34;;;;;;;;;;;;;;;16.86;40.83;99136.66;4980214;28;6796;-72
2022/04/24 07:53:02;;;;;;;;;;;;;;;16.98;40.25;99135.81;4984507;28;7078;-72
2022/04/24 07:55:29;;;;;;;;;;;;;;;17.08;40.24;99141.00;4966873;28;6975;-72
2022/04/24 07:58:00;;;;;;;;;;;;;;;17.17;39.96;99139.31;4999273;28;7943;-72
2022/04/24 08:00:28;;;;;;;;;;;;;;;17.26;39.80;99147.06;4982375;28;7224;-73
2022/04/24 08:03:00;;;;;;;;;;;;;;;17.33;39.85;99148.81;4964605;28;7582;-74
2022/04/24 08:05:28;;;;;;;;;;;;;;;17.45;39.95;99153.13;4982184;28;7216;-74
2022/04/24 08:07:56;;;;;;;;;;;;;;;17.55;39.79;99151.38;4980017;28;6816;-74
2022/04/24 08:10:25;;;;;;;;;;;;;;;17.67;39.56;99149.66;4999064;28;6823;-73
2022/04/24 08:12:51;;;;;;;;;;;;;;;17.74;39.02;99159.16;4998599;28;7131;-73
2022/04/24 08:15:18;;;;;;;;;;;;;;;17.87;38.62;99157.41;4978301;28;6820;-73
2022/04/24 08:17:44;;;;;;;;;;;;;;;18.02;38.84;99151.31;4982603;28;7680;-73
2022/04/24 08:20:13;;;;;;;;;;;;;;;18.16;38.38;99154.78;4983252;28;6824;-73
2022/04/24 08:22:39;;;;;;;;;;;;;;;18.28;38.54;99153.03;4979927;28;7158;-72
2022/04/24 08:25:07;;;;;;;;;;;;;;;18.37;38.08;99159.88;4968948;28;7181;-72
2022/04/24 08:27:33;;;;;;;;;;;;;;;18.41;37.70;99143.47;4966677;28;6976;-73
2022/04/24 08:30:00;;;;;;;;;;;;;;;18.40;37.62;99146.94;4982297;28;7050;-73
2022/04/24 08:32:26;;;;;;;;;;;;;;;18.39;37.87;99156.44;4981850;28;7098;-73
2022/04/24 08:34:52;;;;;;;;;;;;;;;18.39;38.00;99155.56;4979970;28;6804;-73
2022/04/24 08:37:18;;;;;;;;;;;;;;;18.40;38.28;99152.97;4979270;28;6930;-73
2022/04/24 08:39:43;;;;;;;;;;;;;;;18.49;38.40;99153.78;4983371;28;7310;-73
2022/04/24 08:42:09;;;;;;;;;;;;;;;18.57;38.11;99144.25;4983522;28;6946;-73
2022/04/24 08:44:37;;;;;;;;;;;;;;;18.61;37.80;99161.53;4980853;28;6872;-73
2022/04/24 08:47:03;;;;;;;;;;;;;;;18.66;37.43;99153.72;4979372;28;6880;-73
2022/04/24 08:49:32;;;;;;;;;;;;;;;18.71;37.89;99151.97;4980330;28;6800;-73
2022/04/24 08:52:01;;;;;;;;;;;;;;;18.78;37.42;99147.59;4986020;28;6975;-73
2022/04/24 08:54:28;;;;;;;;;;;;;;;18.88;37.22;99155.34;4957026;28;7068;-73
2022/04/24 08:56:59;;;;;;;;;;;;;;;18.98;37.74;99150.94;4982829;28;7188;-73
2022/04/24 08:59:24;;;;;;;;;;;;;;;19.09;37.46;99155.22;4989348;28;6804;-73
2022/04/24 09:01:51;;;;;;;;;;;;;;;19.20;37.22;99162.94;4985754;28;8827;-73
2022/04/24 09:04:19;;;;;;;;;;;;;;;19.33;36.96;99155.94;4986310;28;7122;-74
2022/04/24 09:06:55;;;;;;;;;;;;;;;19.43;36.30;99154.97;4989749;28;6872;-74
2022/04/24 09:09:21;;;;;;;;;;;;;;;19.47;36.00;99159.25;4987306;28;7146;-74
2022/04/24 09:11:47;;;;;;;;;;;;;;;19.54;36.67;99154.88;5004273;28;7411;-74
2022/04/24 09:14:15;;;;;;;;;;;;;;;19.62;36.69;99154.81;4985805;28;6804;-73
2022/04/24 09:16:53;;;;;;;;;;;;;;;19.71;35.88;99146.94;4970352;28;6811;-73
2022/04/24 09:19:21;;;;;;;;;;;;;;;19.89;35.79;99139.81;4986290;28;6816;-73
2022/04/24 09:21:52;;;;;;;;;;;;;;;20.20;35.93;99144.72;5003679;28;6800;-73
2022/04/24 09:24:18;;;;;;;;;;;;;;;20.44;35.71;99143.56;4985872;28;6804;-73
2022/04/24 09:26:50;;;;;;;;;;;;;;;20.64;35.02;99135.47;4988414;28;7198;-73
2022/04/24 09:29:16;;;;;;;;;;;;;;;20.94;35.02;99137.72;4986095;28;6939;-74
2022/04/24 09:31:47;;;;;;;;;;;;;;;21.37;34.76;99130.97;4985812;28;6820;-74
2022/04/24 09:34:17;;;;;;;;;;;;;;;21.83;34.13;99125.88;4983148;28;6989;-74
2022/04/24 09:36:44;;;;;;;;;;;;;;;22.37;33.43;99129.16;4963025;28;7063;-74
2022/04/24 09:39:10;;;;;;;;;;;;;;;22.82;32.83;99129.06;4984040;28;7258;-73
2022/04/24 09:41:37;;;;;;;;;;;;;;;23.26;32.55;99133.25;4987124;28;6825;-73
2022/04/24 09:44:14;;;;;;;;;;;;;;;23.64;31.27;99139.31;5002010;28;6812;-73
2022/04/24 09:46:41;;;;;;;;;;;;;;;23.94;30.90;99131.53;4985640;28;7110;-73
2022/04/24 09:49:10;;;;;;;;;;;;;;;24.27;30.65;99126.31;4986205;28;7001;-73
2022/04/24 09:51:42;;;;;;;;;;;;;;;24.61;30.50;99115.72;4971688;28;6965;-73
2022/04/24 09:54:09;;;;;;;;;;;;;;;24.88;30.49;99121.91;4986508;28;6876;-73
2022/04/24 09:56:36;;;;;;;;;;;;;;;25.00;29.58;99125.88;5002430;28;6854;-73
2022/04/24 09:59:04;;;;;;;;;;;;;;;25.19;29.31;99127.91;4984944;28;6975;-73
2022/04/24 10:01:30;;;;;;;;;;;;;;;25.42;29.71;99128.94;4983398;28;6991;-73
2022/04/24 10:03:57;;;;;;;;;;;;;;;25.65;28.73;99126.38;5003743;28;7309;-73
2022/04/24 10:06:24;;;;;;;;;;;;;;;25.90;28.85;99122.91;4988080;28;7151;-73
2022/04/24 10:08:51;;;;;;;;;;;;;;;26.16;28.39;99122.88;5002075;28;6811;-73
2022/04/24 10:11:17;;;;;;;;;;;;;;;26.44;28.73;99122.72;4988266;28;6799;-73
2022/04/24 10:13:46;;;;;;;;;;;;;;;26.81;28.16;99132.72;4988555;28;6800;-73
2022/04/24 10:16:12;;;;;;;;;;;;;;;27.02;27.30;99129.25;5002514;28;6812;-73
2022/04/24 10:18:58;;;;;;;;;;;;;;;26.92;26.79;99130.53;4984840;28;6895;-73
2022/04/24 10:22:10;;;;;;;;;;;;;;;26.89;26.78;99130.66;4983064;28;6808;-73
2022/04/24 10:24:44;;;;;;;;;;;;;;;27.06;26.59;99126.50;4984416;28;7353;-73
2022/04/24 10:27:11;;;;;;;;;;;;;;;27.27;26.44;99128.25;4987425;28;6988;-73
2022/04/24 10:29:50;;;;;;;;;;;;;;;27.33;26.47;99127.13;4984510;28;6828;-73
2022/04/24 10:32:33;;;;;;;;;;;;;;;27.43;26.08;99127.63;4984788;28;6815;-73
2022/04/24 10:35:00;;;;;;;;;;;;;;;27.52;25.82;99132.47;4987635;28;7240;-73
2022/04/24 10:37:31;;;;;;;;;;;;;;;27.62;25.80;99126.84;4985446;28;6891;-73
2022/04/24 10:40:00;;;;;;;;;;;;;;;27.62;25.44;99125.06;4988243;28;6815;-73
2022/04/24 10:42:34;;;;;;;;;;;;;;;27.47;25.14;99133.56;4984654;28;6886;-73
2022/04/24 10:45:14;;;;;;;;;;;;;;;27.30;25.73;99129.91;5000971;28;6803;-73
2022/04/24 10:47:47;;;;;;;;;;;;;;;27.38;25.35;99129.56;4986121;28;6891;-73
2022/04/24 10:50:14;;;;;;;;;;;;;;;27.43;25.13;99132.88;4987130;28;6935;-73
2022/04/24 10:52:42;;;;;;;;;;;;;;;27.52;25.47;99129.81;4966657;28;6828;-73
2022/04/24 10:55:13;;;;;;;;;;;;;;;27.75;25.78;99128.03;4986966;28;6796;-74
2022/04/24 10:57:46;;;;;;;;;;;;;;;27.84;24.71;99137.28;4987513;28;6998;-74
2022/04/24 11:00:22;;;;;;;;;;;;;;;27.80;24.46;99128.66;4997335;28;6832;-74
2022/04/24 11:02:50;;;;;;;;;;;;;;;27.72;24.52;99129.00;4981841;28;7016;-73
2022/04/24 11:05:22;;;;;;;;;;;;;;;27.80;24.60;99139.19;4987352;28;6971;-74
2022/04/24 11:08:01;;;;;;;;;;;;;;;27.97;24.94;99132.34;4983953;28;7066;-73
2022/04/24 11:10:27;;;;;;;;;;;;;;;28.07;24.50;99125.75;4983282;28;7162;-73
2022/04/24 11:12:54;;;;;;;;;;;;;;;28.12;24.15;99131.66;4988843;28;7188;-73
2022/04/24 11:15:20;;;;;;;;;;;;;;;28.21;24.24;99122.50;4985912;28;6963;-73
2022/04/24 11:17:46;;;;;;;;;;;;;;;28.24;24.58;99116.25;4989193;28;7203;-73
2022/04/24 11:20:16;;;;;;;;;;;;;;;28.19;23.78;99121.72;4985361;28;6800;-73
2022/04/24 11:22:55;;;;;;;;;;;;;;;28.01;24.39;99128.66;4987869;28;7156;-73
2022/04/24 11:25:24;;;;;;;;;;;;;;;27.83;24.04;99131.19;4977950;28;6808;-73
2022/04/24 11:28:04;;;;;;;;;;;;;;;27.71;24.05;99132.56;4982432;28;6808;-73
2022/04/24 11:30:32;;;;;;;;;;;;;;;27.68;24.58;99122.19;4967952;28;6859;-73
2022/04/24 11:33:06;;;;;;;;;;;;;;;27.71;23.87;99129.06;4986729;28;7117;-73
2022/04/24 11:35:38;;;;;;;;;;;;;;;27.76;24.10;99129.75;4960817;28;6952;-73
2022/04/24 11:38:13;;;;;;;;;;;;;;;27.98;24.22;99123.50;4981618;28;6796;-73
2022/04/24 11:40:48;;;;;;;;;;;;;;;28.17;23.56;99120.94;4984019;28;6816;-73
2022/04/24 11:43:19;;;;;;;;;;;;;;;28.30;24.64;99129.16;4984226;28;6882;-73
2022/04/24 11:51:20;;;;;;;;;;;;;;;28.51;23.79;99122.00;4983746;28;6965;-73
2022/04/24 11:53:46;;;;;;;;;;;;;;;28.51;23.79;99127.28;4984974;28;6800;-73
2022/04/24 11:56:13;;;;;;;;;;;;;;;28.60;23.29;99126.00;4958296;28;6820;-73
2022/04/24 11:58:42;;;;;;;;;;;;;;;28.73;23.05;99126.28;4985191;28;7766;-73
2022/04/24 12:01:12;;;;;;;;;;;;;;;28.97;23.08;99126.03;4980771;28;6804;-73
2022/04/24 12:03:43;;;;;;;;;;;;;;;28.97;22.89;99123.41;4984127;28;7469;-73
2022/04/24 12:06:11;;;;;;;;;;;;;;;28.65;23.23;99129.28;4980791;28;6816;-73
2022/04/24 12:08:50;;;;;;;;;;;;;;;28.67;23.19;99135.31;4984466;28;6812;-72
2022/04/24 12:11:29;;;;;;;;;;;;;;;28.66;22.68;99135.41;4984549;28;7019;-72
2022/04/24 12:13:59;;;;;;;;;;;;;;;28.64;23.01;99138.09;5000729;28;7255;-72
2022/04/24 12:16:24;;;;;;;;;;;;;;;28.68;22.54;99139.69;4982412;28;7337;-72
2022/04/24 12:18:59;;;;;;;;;;;;;;;28.88;22.65;99140.53;4981246;28;6812;-73
2022/04/24 12:21:28;;;;;;;;;;;;;;;28.82;22.18;99139.03;4980695;28;6804;-73
2022/04/24 12:23:55;;;;;;;;;;;;;;;28.63;22.75;99146.94;5001093;28;7177;-73
2022/04/24 12:26:21;;;;;;;;;;;;;;;28.11;22.45;99142.25;4966183;28;7018;-74
2022/04/24 12:28:48;;;;;;;;;;;;;;;27.17;22.70;99147.97;4963333;28;6899;-74
2022/04/24 12:31:27;;;;;;;;;;;;;;;26.40;23.69;99155.28;4978488;28;6888;-74
2022/04/24 12:33:55;;;;;;;;;;;;;;;26.49;24.25;99159.31;4981624;28;7035;-74
2022/04/24 12:36:23;;;;;;;;;;;;;;;27.02;24.29;99158.16;4985271;28;6823;-73
2022/04/24 12:38:58;;;;;;;;;;;;;;;27.56;24.11;99152.50;4983080;28;7193;-74
2022/04/24 12:41:27;;;;;;;;;;;;;;;27.62;23.66;99158.41;4984625;28;8368;-74
2022/04/24 12:44:04;;;;;;;;;;;;;;;27.77;23.73;99155.13;4981988;28;6816;-74
2022/04/24 12:46:31;;;;;;;;;;;;;;;27.89;23.01;99153.75;4967373;28;7420;-74
2022/04/24 12:48:58;;;;;;;;;;;;;;;27.93;23.19;99157.94;4984116;28;6959;-74
2022/04/24 12:51:26;;;;;;;;;;;;;;;28.00;23.12;99153.25;4984177;28;6966;-74
2022/04/24 12:53:53;;;;;;;;;;;;;;;28.14;23.64;99150.00;4983328;28;6969;-74
2022/04/24 12:56:20;;;;;;;;;;;;;;;28.49;23.31;99162.53;4961754;28;6796;-74
2022/04/24 12:58:46;;;;;;;;;;;;;;;28.77;22.95;99158.59;4984169;28;6804;-74
2022/04/24 13:01:12;;;;;;;;;;;;;;;28.70;22.60;99158.03;4983832;28;7170;-74
2022/04/24 13:03:39;;;;;;;;;;;;;;;28.19;22.54;99153.34;4986118;28;6799;-74
2022/04/24 13:06:10;;;;;;;;;;;;;;;28.05;23.23;99148.66;4986212;28;7122;-74